KTIW

Details ICAO KTIW (TIW)
Name TACOMA NARROWS
Region United States
Timezone America/Los_Angeles (UTC-8.0)
Plans Departing 57
Arriving 36
Stats Elevation 292 ft / 89 m (AMSL)
Location 47.267930° -122.578113°
Runways 1
Magnetic Variation 15.689° E
Sunrise 2017-12-15 15:52:07 UTC / 2017-12-15 07:52:07 Local
Sunset 2017-12-16 00:21:55 UTC / 2017-12-15 16:21:55 Local
Advertisement - Login to hide

Runways

ID Width Length Bearing (true) Bearing (mag) Surface Threshold Offset Overrun Length
17 150 ft / 46 m 5,004 ft / 1,525 m 186.99° 171.30° Asphalt 0 ft / 0 m 0 ft / 0 m
35 150 ft / 46 m 5,004 ft / 1,525 m 6.99° 351.30° Asphalt 0 ft / 0 m 0 ft / 0 m

Approach Navaids

Runway Type Ident Frequency Range Bearing (true) Bearing (mag) Slope Elevation
17 Localiser ITIW 109.10 MHz 18 nm / 33 km 186.99° 171.30° - 292 ft / 89 m (AMSL)
17 Glidescope ITIW 109.10 MHz 10 nm / 19 km 186.99° 171.30° 3.00° 292 ft / 89 m (AMSL)

Map

Weather


0- 5 10 15 20 25 30 35+ Temperature / ° C

Clouds and Precipitation
Forecast for 2017-12-15 18:00 UTC. Updated an hour ago

Ground ~20,000 ft ~40,000 ft Winds

METAR

KTIW 151553Z COR 15011KT 10SM FEW022 SCT070 OVC090 03/02 A3017 RMK AO2 SLP219 T00330017

TAF

Not found

Frequencies

Recorded 124.05 MHz ATIS
Unicom 122.95 MHz UNICOM
Tower 118.50 MHz TWR
Unicom 118.50 MHz CTAF
Ground 121.80 MHz GND
Approach 120.10 MHz SEATTLE APP/DEP
Warning: Do not use this data for real-world aviation or navigation. No guarantee of current accuracy is given.